Time;durP1;ratioP1;P1;durP2;ratioP2;P2;SDS_P1;SDS_P2;PMS_P1;PMS_P2;Temp;Humidity;BMP_temperature;BMP_pressure;BME280_temperature;BME280_humidity;BME280_pressure;Samples;Min_cycle;Max_cycle;Signal;HPM_P1;HPM_P2
2021/05/16 00:00:04;;;;;;;21.07;18.70;;;;;;;9.81;85.75;100041.09;696414;28;808;-47
2021/05/16 00:00:26;;;;;;;21.42;19.10;;;;;;;9.84;85.57;100040.06;696689;28;863;-46
2021/05/16 00:00:47;;;;;;;20.70;18.50;;;;;;;9.84;85.76;100033.06;696626;28;950;-46
2021/05/16 00:01:09;;;;;;;20.83;18.48;;;;;;;9.84;85.73;100033.06;696479;28;801;-46
2021/05/16 00:01:30;;;;;;;20.67;18.38;;;;;;;9.86;85.69;100039.06;696785;28;835;-47
2021/05/16 00:01:50;;;;;;;20.77;18.50;;;;;;;9.87;85.39;100039.91;696701;28;880;-47
2021/05/16 00:02:10;;;;;;;20.95;18.75;;;;;;;9.88;85.70;100042.50;696650;28;811;-47
2021/05/16 00:02:30;;;;;;;20.63;18.43;;;;;;;9.93;85.48;100039.59;696744;28;840;-45
2021/05/16 00:02:54;;;;;;;20.93;18.73;;;;;;;9.95;85.62;100037.75;696539;28;877;-45
2021/05/16 00:03:15;;;;;;;20.77;18.58;;;;;;;9.96;85.39;100032.41;696545;28;922;-46
2021/05/16 00:03:47;;;;;;;21.02;18.23;;;;;;;9.96;85.42;100040.31;696773;28;949;-45
2021/05/16 00:04:07;;;;;;;21.00;18.80;;;;;;;9.93;85.39;100037.81;696631;28;931;-46
2021/05/16 00:04:28;;;;;;;20.50;18.40;;;;;;;9.92;85.40;100036.13;696669;28;988;-46
2021/05/16 00:04:48;;;;;;;20.70;18.50;;;;;;;9.91;85.64;100037.06;696660;28;859;-45
2021/05/16 00:05:10;;;;;;;21.13;18.83;;;;;;;9.91;85.52;100037.06;696475;28;927;-47
2021/05/16 00:05:32;;;;;;;21.33;19.02;;;;;;;9.90;85.84;100035.34;696445;28;1078;-47
2021/05/16 00:05:52;;;;;;;21.17;18.90;;;;;;;9.90;85.86;100035.34;696661;28;901;-46
2021/05/16 00:06:12;;;;;;;21.50;19.20;;;;;;;9.90;85.66;100030.06;696595;28;1180;-45
2021/05/16 00:06:32;;;;;;;21.50;19.20;;;;;;;9.89;85.88;100033.66;696603;28;1114;-46
2021/05/16 00:06:53;;;;;;;21.20;18.93;;;;;;;9.88;85.94;100033.75;696707;28;876;-45
2021/05/16 00:07:16;;;;;;;22.07;19.30;;;;;;;9.89;85.91;100028.38;696437;28;994;-46
2021/05/16 00:07:36;;;;;;;21.45;19.15;;;;;;;9.89;85.84;100028.38;696642;28;942;-44
2021/05/16 00:07:57;;;;;;;21.60;19.40;;;;;;;9.89;85.80;100027.53;696610;28;990;-45
2021/05/16 00:08:17;;;;;;;21.70;19.40;;;;;;;9.88;85.69;100029.31;696595;28;855;-46
2021/05/16 00:08:37;;;;;;;20.70;18.42;;;;;;;9.88;85.72;100029.31;696203;28;1025;-45
2021/05/16 00:08:58;;;;;;;21.23;18.70;;;;;;;9.88;85.89;100026.69;696659;28;838;-46
2021/05/16 00:09:18;;;;;;;21.10;18.73;;;;;;;9.87;85.96;100029.38;696207;28;1901;-46
2021/05/16 00:09:40;;;;;;;21.77;19.33;;;;;;;9.88;86.07;100025.84;696745;28;1013;-47
2021/05/16 00:10:00;;;;;;;21.73;18.85;;;;;;;9.88;86.03;100031.97;696661;28;839;-46
2021/05/16 00:10:24;;;;;;;20.90;18.63;;;;;;;9.88;86.09;100029.31;696686;28;957;-45
2021/05/16 00:10:44;;;;;;;21.40;19.20;;;;;;;9.89;85.88;100022.28;696758;28;934;-45
2021/05/16 00:11:04;;;;;;;20.97;18.87;;;;;;;9.89;86.12;100025.75;696555;28;1021;-47
2021/05/16 00:11:25;;;;;;;21.45;19.15;;;;;;;9.88;85.89;100026.69;696525;28;995;-45
2021/05/16 00:11:45;;;;;;;21.07;18.87;;;;;;;9.82;86.10;100016.47;696800;28;820;-47
2021/05/16 00:12:07;;;;;;;20.38;18.17;;;;;;;9.86;86.06;100023.28;696614;28;800;-47
2021/05/16 00:12:27;;;;;;;21.52;19.23;;;;;;;9.83;85.95;100026.06;696493;28;1098;-46
2021/05/16 00:12:48;;;;;;;21.27;18.97;;;;;;;9.81;86.09;100024.47;696665;28;884;-46
2021/05/16 00:13:10;;;;;;;21.70;19.40;;;;;;;9.80;86.13;100028.00;696715;28;832;-46
2021/05/16 00:13:31;;;;;;;21.65;19.35;;;;;;;9.79;86.07;100027.16;696471;28;1406;-47
2021/05/16 00:13:51;;;;;;;21.93;19.50;;;;;;;9.78;86.08;100022.84;696782;28;840;-47
2021/05/16 00:14:11;;;;;;;22.20;19.77;;;;;;;9.79;86.28;100021.91;696785;28;857;-46
2021/05/16 00:14:32;;;;;;;22.17;19.70;;;;;;;9.80;86.13;100018.31;696714;28;788;-47
2021/05/16 00:14:52;;;;;;;22.57;20.17;;;;;;;9.79;86.06;100021.91;696812;28;832;-46
2021/05/16 00:15:15;;;;;;;22.53;20.13;;;;;;;9.77;86.03;100020.25;696745;28;1225;-49
2021/05/16 00:15:35;;;;;;;22.98;20.42;;;;;;;9.77;86.05;100023.75;696730;28;1069;-49
2021/05/16 00:15:56;;;;;;;23.00;20.60;;;;;;;9.76;86.31;100019.41;696743;28;994;-48
2021/05/16 00:16:16;;;;;;;23.30;20.25;;;;;;;9.75;86.24;100020.34;696849;28;918;-45
2021/05/16 00:16:40;;;;;;;23.07;19.80;;;;;;;9.74;86.32;100019.50;696667;28;926;-47
2021/05/16 00:17:03;;;;;;;22.60;20.20;;;;;;;9.74;86.11;100018.66;696831;28;1089;-48
2021/05/16 00:17:23;;;;;;;22.95;20.48;;;;;;;9.73;86.21;100023.03;696463;28;1985;-47
2021/05/16 00:17:44;;;;;;;23.57;21.07;;;;;;;9.72;86.23;100020.50;696723;28;1099;-46
2021/05/16 00:18:08;;;;;;;22.08;19.65;;;;;;;9.72;86.25;100025.78;694324;28;987;-50
2021/05/16 00:18:28;;;;;;;22.80;20.08;;;;;;;9.73;86.39;100022.19;693064;28;1054;-47
2021/05/16 00:18:48;;;;;;;21.17;18.87;;;;;;;9.75;86.24;100021.19;693724;28;923;-49
2021/05/16 00:19:08;;;;;;;22.83;20.33;;;;;;;9.75;86.22;100023.00;694369;28;831;-47
2021/05/16 00:19:29;;;;;;;24.00;20.70;;;;;;;9.75;86.44;100023.84;696486;28;1358;-47
2021/05/16 00:19:58;;;;;;;23.47;20.67;;;;;;;9.75;86.55;100020.34;696292;28;1041;-47
2021/05/16 00:20:22;;;;;;;22.98;20.58;;;;;;;9.73;86.49;100024.84;696755;28;844;-47
2021/05/16 00:20:43;;;;;;;23.05;20.23;;;;;;;9.74;86.18;100018.66;699293;28;1166;-47
2021/05/16 00:21:04;;;;;;;22.88;20.05;;;;;;;9.75;86.04;100015.09;699164;28;820;-46
2021/05/16 00:21:24;;;;;;;22.70;19.90;;;;;;;9.75;86.20;100015.09;699147;28;956;-47
2021/05/16 00:21:44;;;;;;;22.80;20.33;;;;;;;9.75;86.42;100020.34;696352;28;1143;-46
2021/05/16 00:22:07;;;;;;;23.00;20.43;;;;;;;9.74;86.23;100013.41;696293;28;1031;-47
2021/05/16 00:22:30;;;;;;;22.67;20.20;;;;;;;9.74;86.23;100018.66;696659;28;968;-47
2021/05/16 00:22:56;;;;;;;24.63;20.60;;;;;;;9.75;86.25;100020.34;696385;28;934;-47
2021/05/16 00:23:26;;;;;;;23.33;20.83;;;;;;;9.75;86.49;100020.34;696333;28;895;-47
2021/05/16 00:23:46;;;;;;;23.25;20.75;;;;;;;9.75;86.22;100023.84;696506;28;1171;-47
2021/05/16 00:24:08;;;;;;;23.27;20.87;;;;;;;9.76;86.13;100019.41;696748;28;940;-47
2021/05/16 00:24:28;;;;;;;23.00;20.52;;;;;;;9.82;86.16;100015.63;696224;28;1279;-47
2021/05/16 00:24:48;;;;;;;23.60;20.90;;;;;;;9.82;85.86;100021.75;695921;28;1514;-50
2021/05/16 00:25:13;;;;;;;23.77;21.17;;;;;;;9.83;85.82;100019.94;696404;28;960;-51
2021/05/16 00:25:37;;;;;;;23.52;20.83;;;;;;;9.84;86.01;100019.88;696344;28;801;-48
2021/05/16 00:25:58;;;;;;;24.17;20.95;;;;;;;9.81;85.85;100016.56;696306;28;994;-50
2021/05/16 00:26:18;;;;;;;24.77;21.47;;;;;;;9.81;85.93;100019.19;696484;28;1036;-48
2021/05/16 00:26:38;;;;;;;23.88;21.27;;;;;;;9.80;85.90;100018.31;696665;28;972;-47
2021/05/16 00:26:59;;;;;;;24.00;21.00;;;;;;;9.81;85.74;100016.56;696675;28;939;-48
2021/05/16 00:27:19;;;;;;;22.77;20.33;;;;;;;9.80;85.71;100010.44;696433;28;919;-48
2021/05/16 00:27:39;;;;;;;23.23;20.45;;;;;;;9.79;85.79;100016.63;696683;28;1013;-47
2021/05/16 00:28:02;;;;;;;24.23;20.63;;;;;;;9.85;85.78;100015.47;696578;28;2001;-48
2021/05/16 00:28:23;;;;;;;23.27;20.42;;;;;;;9.87;85.79;100019.72;696287;28;982;-47
2021/05/16 00:28:46;;;;;;;24.92;21.02;;;;;;;9.87;85.91;100024.13;696284;28;1077;-47
2021/05/16 00:29:06;;;;;;;23.55;20.90;;;;;;;9.90;85.63;100021.34;696556;28;922;-48
2021/05/16 00:29:26;;;;;;;23.23;20.73;;;;;;;9.92;85.66;100022.13;696337;28;1905;-47
2021/05/16 00:29:47;;;;;;;23.17;20.65;;;;;;;9.91;85.61;100020.41;696613;28;977;-47
2021/05/16 00:30:09;;;;;;;22.67;20.20;;;;;;;9.86;85.64;100006.63;696446;28;857;-47
2021/05/16 00:30:33;;;;;;;22.75;20.10;;;;;;;9.91;85.58;100016.00;696229;28;1278;-49
2021/05/16 00:30:54;;;;;;;23.15;18.77;;;;;;;9.91;85.55;100021.28;695469;28;1013;-45
2021/05/16 00:31:14;;;;;;;23.93;20.20;;;;;;;9.93;85.50;100018.53;696390;28;895;-47
2021/05/16 00:31:38;;;;;;;22.90;20.35;;;;;;;9.93;85.90;100014.13;696400;28;911;-48
2021/05/16 00:32:01;;;;;;;23.13;20.30;;;;;;;9.94;85.48;100020.25;696195;28;1038;-50
2021/05/16 00:32:21;;;;;;;22.73;20.23;;;;;;;9.95;85.54;100020.19;696344;28;839;-49
2021/05/16 00:32:42;;;;;;;23.67;20.87;;;;;;;9.98;85.75;100013.91;694797;28;1277;-47
2021/05/16 00:33:02;;;;;;;24.67;20.97;;;;;;;9.97;85.48;100020.94;696409;28;859;-48
2021/05/16 00:33:22;;;;;;;23.92;20.60;;;;;;;9.97;85.49;100013.03;696278;28;867;-49
2021/05/16 00:33:43;;;;;;;23.63;20.03;;;;;;;9.97;85.39;100018.28;696266;28;891;-48
2021/05/16 00:34:03;;;;;;;24.07;20.63;;;;;;;9.96;85.49;100021.88;696360;28;807;-47
2021/05/16 00:34:24;;;;;;;24.13;20.65;;;;;;;9.96;85.52;100013.97;696360;28;864;-48
2021/05/16 00:34:44;;;;;;;23.35;20.60;;;;;;;9.94;85.54;100015.84;696481;28;792;-49
2021/05/16 00:35:06;;;;;;;23.73;21.03;;;;;;;9.95;85.36;100016.69;696544;28;903;-48
2021/05/16 00:35:30;;;;;;;23.80;21.20;;;;;;;9.97;85.48;100020.94;696431;28;959;-46
2021/05/16 00:35:50;;;;;;;23.50;20.70;;;;;;;9.96;85.25;100018.38;696666;28;970;-47
2021/05/16 00:36:11;;;;;;;23.33;20.70;;;;;;;9.96;85.25;100021.03;696625;28;1000;-50
2021/05/16 00:36:31;;;;;;;23.53;20.70;;;;;;;9.97;85.33;100020.09;696440;28;1013;-47
2021/05/16 00:36:51;;;;;;;24.20;21.43;;;;;;;9.95;85.34;100012.28;696544;28;1093;-47
2021/05/16 00:37:11;;;;;;;23.53;21.00;;;;;;;9.97;85.29;100022.72;696488;28;847;-47
2021/05/16 00:37:32;;;;;;;23.02;20.42;;;;;;;9.97;85.41;100018.28;696553;28;1029;-46
2021/05/16 00:37:52;;;;;;;23.70;20.77;;;;;;;9.97;85.29;100020.09;696694;28;978;-49
2021/05/16 00:38:12;;;;;;;23.90;21.00;;;;;;;9.96;85.25;100018.38;696405;28;2055;-48
2021/05/16 00:38:33;;;;;;;24.63;20.83;;;;;;;10.01;85.10;100018.13;696101;28;883;-50
2021/05/16 00:38:56;;;;;;;24.27;21.20;;;;;;;9.99;84.96;100018.22;696630;28;927;-50
2021/05/16 00:39:16;;;;;;;23.92;21.33;;;;;;;10.01;85.07;100015.50;696377;28;1438;-49
2021/05/16 00:39:36;;;;;;;23.77;21.00;;;;;;;10.00;85.27;100014.66;696546;28;963;-48
2021/05/16 00:39:57;;;;;;;24.43;20.70;;;;;;;9.98;85.03;100014.75;696565;28;855;-47
2021/05/16 00:40:18;;;;;;;26.05;21.55;;;;;;;9.98;84.65;100014.75;696611;28;863;-47
2021/05/16 00:40:44;;;;;;;24.77;21.27;;;;;;;9.99;84.76;100019.09;696510;28;922;-48
2021/05/16 00:41:05;;;;;;;25.20;21.20;;;;;;;9.97;84.75;100015.66;696529;28;931;-48
2021/05/16 00:41:27;;;;;;;25.38;20.98;;;;;;;9.97;84.80;100014.81;696408;28;994;-48
2021/05/16 00:41:48;;;;;;;26.15;21.35;;;;;;;9.96;85.11;100013.97;696552;28;860;-47
2021/05/16 00:42:08;;;;;;;25.60;21.93;;;;;;;10.02;85.33;100022.50;696639;28;839;-47
2021/05/16 00:42:29;;;;;;;24.50;21.00;;;;;;;10.06;85.14;100016.97;696628;28;998;-47
2021/05/16 00:42:49;;;;;;;23.58;20.50;;;;;;;10.10;84.79;100020.31;696500;28;1033;-46
2021/05/16 00:43:10;;;;;;;24.70;20.97;;;;;;;10.10;84.70;100012.41;696672;28;804;-49
2021/05/16 00:43:30;;;;;;;24.13;21.10;;;;;;;10.15;84.40;100013.00;696582;28;891;-47
2021/05/16 00:43:51;;;;;;;25.30;21.08;;;;;;;10.11;84.46;100017.56;696646;28;878;-50
2021/05/16 00:44:11;;;;;;;25.10;21.57;;;;;;;10.08;84.50;100009.88;696612;28;967;-49
2021/05/16 00:44:31;;;;;;;23.70;20.92;;;;;;;10.07;84.46;100013.41;696565;28;938;-49
2021/05/16 00:45:19;;;;;;;24.93;21.60;;;;;;;10.08;84.41;100009.88;696627;28;832;-46
2021/05/16 00:45:46;;;;;;;25.55;21.25;;;;;;;10.05;84.47;100009.16;693387;28;1502;-50
2021/05/16 00:46:09;;;;;;;24.95;21.35;;;;;;;10.02;84.68;100014.59;696582;28;934;-47
2021/05/16 00:46:29;;;;;;;25.15;20.75;;;;;;;9.99;84.68;100007.69;696547;28;840;-47
2021/05/16 00:46:52;;;;;;;24.90;20.50;;;;;;;9.99;84.80;100011.19;696467;28;917;-48
2021/05/16 00:47:12;;;;;;;25.88;20.70;;;;;;;9.98;84.99;100011.28;696547;28;800;-47
2021/05/16 00:47:33;;;;;;;26.17;21.33;;;;;;;9.98;85.01;100012.13;696402;28;925;-45
2021/05/16 00:47:57;;;;;;;27.25;22.20;;;;;;;9.96;85.09;100008.72;696608;28;1017;-46
2021/05/16 00:48:20;;;;;;;26.05;21.58;;;;;;;9.96;85.06;100010.50;696535;28;1042;-49
2021/05/16 00:48:41;;;;;;;26.77;22.52;;;;;;;9.96;84.98;100016.59;696201;28;918;-49
2021/05/16 00:49:04;;;;;;;25.47;21.80;;;;;;;9.96;85.09;100008.72;698926;28;1348;-49
2021/05/16 00:49:24;;;;;;;25.88;21.38;;;;;;;9.96;85.33;100018.38;698867;28;1909;-49
2021/05/16 00:49:44;;;;;;;26.10;21.98;;;;;;;10.07;84.96;100009.94;698982;28;991;-49
2021/05/16 00:50:09;;;;;;;25.53;21.30;;;;;;;10.03;84.82;100009.25;699093;28;919;-49
2021/05/16 00:50:40;;;;;;;25.55;20.98;;;;;;;10.01;84.71;100015.50;698856;28;1756;-48
2021/05/16 00:51:00;;;;;;;25.13;21.75;;;;;;;9.99;84.87;100013.81;696590;28;1014;-47
2021/05/16 00:51:21;;;;;;;25.43;21.67;;;;;;;9.94;84.91;100010.59;696488;28;1018;-46
2021/05/16 00:51:44;;;;;;;26.93;22.07;;;;;;;9.90;85.17;100011.66;696459;28;875;-50
2021/05/16 00:52:05;;;;;;;27.52;21.85;;;;;;;9.88;85.14;100016.16;696503;28;930;-47
2021/05/16 00:52:31;;;;;;;27.13;22.10;;;;;;;9.87;85.54;100013.59;696527;28;1021;-49
2021/05/16 00:52:51;;;;;;;26.75;22.05;;;;;;;9.86;85.16;100009.28;695905;28;1311;-46
2021/05/16 00:53:11;;;;;;;27.17;22.13;;;;;;;9.89;85.38;100012.59;696140;28;1013;-48
2021/05/16 00:53:33;;;;;;;26.47;22.00;;;;;;;9.87;84.88;100011.81;696506;28;847;-47
2021/05/16 00:53:54;;;;;;;26.80;22.05;;;;;;;9.83;85.33;100015.53;696403;28;902;-47
2021/05/16 00:54:17;;;;;;;28.08;22.30;;;;;;;9.81;85.40;100014.78;696601;28;887;-49
2021/05/16 00:54:38;;;;;;;28.40;22.70;;;;;;;9.80;85.39;100007.78;696447;28;824;-47
2021/05/16 00:54:58;;;;;;;28.30;22.03;;;;;;;9.82;85.46;100010.38;696460;28;1034;-50
2021/05/16 00:55:20;;;;;;;29.30;22.27;;;;;;;9.83;85.14;100006.78;696462;28;954;-47
2021/05/16 00:55:40;;;;;;;28.73;21.85;;;;;;;9.81;85.17;100009.53;696505;28;887;-49
2021/05/16 00:56:00;;;;;;;26.47;20.83;;;;;;;9.81;84.98;100017.41;696507;28;801;-47
2021/05/16 00:56:24;;;;;;;26.55;21.55;;;;;;;9.85;85.38;100020.75;696404;28;1001;-47
2021/05/16 00:56:44;;;;;;;26.52;21.55;;;;;;;9.82;85.18;100011.22;696500;28;907;-49
2021/05/16 00:57:05;;;;;;;27.15;21.50;;;;;;;9.92;84.73;100015.06;696556;28;1065;-47
2021/05/16 00:57:25;;;;;;;26.10;21.30;;;;;;;9.91;84.58;100016.00;696345;28;911;-47
2021/05/16 00:57:46;;;;;;;26.53;21.47;;;;;;;9.89;84.34;100017.84;696337;28;1315;-48
2021/05/16 00:58:06;;;;;;;27.60;20.77;;;;;;;9.88;84.71;100013.53;696462;28;796;-47
2021/05/16 00:58:27;;;;;;;27.13;20.37;;;;;;;9.88;84.65;100010.06;696087;28;967;-46
2021/05/16 00:58:47;;;;;;;27.38;20.98;;;;;;;9.86;84.91;100018.00;696437;28;934;-47
2021/05/16 00:59:13;;;;;;;27.17;21.60;;;;;;;9.86;84.91;100018.00;696525;28;967;-48
2021/05/16 00:59:40;;;;;;;28.35;21.27;;;;;;;9.82;84.95;100015.63;695903;28;1025;-47
2021/05/16 01:00:00;;;;;;;29.05;21.42;;;;;;;9.79;84.93;100021.91;696354;28;824;-47
2021/05/16 01:00:30;;;;;;;28.57;21.03;;;;;;;9.77;84.85;100015.00;695686;28;1477;-48
2021/05/16 01:00:51;;;;;;;28.65;21.13;;;;;;;9.71;85.23;100013.56;696143;28;1562;-48
2021/05/16 01:01:14;;;;;;;29.30;21.05;;;;;;;9.74;84.86;100013.41;696297;28;898;-46
2021/05/16 01:01:37;;;;;;;28.88;20.88;;;;;;;9.74;85.14;100016.03;696351;28;921;-48
2021/05/16 01:02:01;;;;;;;28.67;20.92;;;;;;;9.75;84.91;100009.81;696404;28;953;-47
2021/05/16 01:02:21;;;;;;;26.55;20.05;;;;;;;9.76;85.03;100014.16;696583;28;839;-48
2021/05/16 01:02:44;;;;;;;27.27;20.60;;;;;;;9.73;84.99;100016.94;696403;28;984;-47
2021/05/16 01:03:04;;;;;;;27.75;21.02;;;;;;;9.71;85.18;100010.91;696482;28;902;-49
2021/05/16 01:03:29;;;;;;;26.58;21.27;;;;;;;9.71;84.78;100014.41;696433;28;989;-47
2021/05/16 01:03:53;;;;;;;26.85;21.00;;;;;;;9.71;85.23;100010.91;696328;28;978;-50
2021/05/16 01:04:13;;;;;;;30.50;21.30;;;;;;;9.73;84.60;100014.31;696438;28;945;-46
2021/05/16 01:04:36;;;;;;;27.60;20.83;;;;;;;9.72;84.83;100016.09;696355;28;816;-49
2021/05/16 01:04:56;;;;;;;28.20;20.45;;;;;;;9.70;84.72;100014.47;696525;28;1058;-48
2021/05/16 01:05:17;;;;;;;28.43;21.37;;;;;;;9.68;85.09;100013.72;696273;28;999;-47
2021/05/16 01:05:42;;;;;;;29.63;21.60;;;;;;;9.68;84.93;100008.44;696369;28;862;-49
2021/05/16 01:06:03;;;;;;;29.95;21.25;;;;;;;9.67;85.11;100012.84;696498;28;887;-49
2021/05/16 01:06:25;;;;;;;30.27;21.30;;;;;;;9.65;85.30;100011.22;696293;28;1346;-46
2021/05/16 01:06:46;;;;;;;29.70;21.08;;;;;;;9.66;84.93;100013.75;696476;28;841;-47
2021/05/16 01:07:07;;;;;;;28.83;21.30;;;;;;;9.64;85.00;100013.00;696469;28;903;-47
2021/05/16 01:07:27;;;;;;;28.38;21.00;;;;;;;9.66;84.89;100005.03;696196;28;1234;-46
2021/05/16 01:07:48;;;;;;;27.83;21.10;;;;;;;9.65;85.03;100008.59;696427;28;973;-46
2021/05/16 01:08:10;;;;;;;27.13;20.27;;;;;;;9.65;85.22;100008.59;696386;28;916;-46
2021/05/16 01:08:34;;;;;;;27.83;20.10;;;;;;;9.64;85.12;100018.28;696041;28;895;-46
2021/05/16 01:09:00;;;;;;;27.95;20.83;;;;;;;9.65;85.17;100014.72;696494;28;815;-47
2021/05/16 01:09:23;;;;;;;27.65;21.10;;;;;;;9.68;85.25;100008.44;696205;28;1979;-49
2021/05/16 01:09:46;;;;;;;26.92;20.63;;;;;;;9.67;85.17;100007.59;696261;28;1202;-48
2021/05/16 01:10:11;;;;;;;27.52;20.27;;;;;;;9.66;85.13;100005.03;696413;28;968;-47
2021/05/16 01:10:33;;;;;;;29.08;21.15;;;;;;;9.71;84.85;100013.56;696408;28;807;-47
2021/05/16 01:10:53;;;;;;;28.65;20.80;;;;;;;9.71;84.53;100013.56;696430;28;926;-47
2021/05/16 01:11:17;;;;;;;28.90;20.83;;;;;;;9.67;84.56;100014.63;696578;28;870;-48
2021/05/16 01:11:41;;;;;;;26.77;20.38;;;;;;;9.67;84.65;100018.13;696420;28;847;-48
2021/05/16 01:12:04;;;;;;;27.20;19.95;;;;;;;9.66;84.50;100012.91;696313;28;840;-48
2021/05/16 01:12:31;;;;;;;27.80;20.17;;;;;;;9.67;84.75;100011.97;696474;28;979;-47
2021/05/16 01:12:54;;;;;;;26.52;20.50;;;;;;;9.68;84.43;100008.44;696421;28;843;-47
2021/05/16 01:13:15;;;;;;;27.92;20.40;;;;;;;9.67;84.43;100011.97;696472;28;965;-46
2021/05/16 01:13:38;;;;;;;28.10;20.40;;;;;;;9.64;84.40;100002.50;696302;28;835;-47
2021/05/16 01:14:05;;;;;;;29.52;20.92;;;;;;;9.68;84.49;100014.56;696374;28;890;-48
2021/05/16 01:14:33;;;;;;;27.05;20.05;;;;;;;9.67;84.54;100012.84;696359;28;950;-48
2021/05/16 01:14:55;;;;;;;28.60;20.38;;;;;;;9.72;84.18;100009.97;696444;28;835;-46
2021/05/16 01:15:18;;;;;;;28.10;19.88;;;;;;;9.69;84.35;100010.97;696577;28;886;-46
2021/05/16 01:15:41;;;;;;;26.98;20.08;;;;;;;9.69;84.49;100007.50;696274;28;871;-46
2021/05/16 01:16:02;;;;;;;27.15;20.45;;;;;;;9.68;84.25;100013.72;696379;28;970;-47
2021/05/16 01:16:22;;;;;;;27.20;20.23;;;;;;;9.66;84.51;100015.56;696366;28;980;-46
2021/05/16 01:16:43;;;;;;;27.75;20.10;;;;;;;9.64;84.26;100013.00;696471;28;870;-48
2021/05/16 01:17:03;;;;;;;27.23;19.53;;;;;;;9.66;84.36;100011.13;696436;28;923;-45
2021/05/16 01:17:24;;;;;;;26.58;19.33;;;;;;;9.66;84.64;100015.56;696364;28;879;-48
2021/05/16 01:17:47;;;;;;;27.73;19.42;;;;;;;9.64;84.60;100018.28;696217;28;1238;-46
2021/05/16 01:18:08;;;;;;;27.00;19.67;;;;;;;9.67;84.43;100014.63;696374;28;1156;-49
2021/05/16 01:18:28;;;;;;;27.10;19.60;;;;;;;9.69;84.28;100010.13;695994;28;993;-48
2021/05/16 01:18:49;;;;;;;27.10;19.03;;;;;;;9.71;84.47;100010.91;696484;28;1036;-47
2021/05/16 01:19:09;;;;;;;26.77;19.05;;;;;;;9.69;84.42;100016.25;696208;28;1289;-46
2021/05/16 01:19:31;;;;;;;27.00;19.48;;;;;;;9.66;84.33;100015.56;696449;28;960;-47
2021/05/16 01:19:54;;;;;;;28.08;19.30;;;;;;;9.67;84.49;100011.97;696247;28;1646;-48
2021/05/16 01:20:20;;;;;;;28.33;19.60;;;;;;;9.69;84.00;100015.41;696362;28;953;-46
2021/05/16 01:20:43;;;;;;;27.08;19.85;;;;;;;9.66;84.28;100013.75;696478;28;1073;-47
2021/05/16 01:21:04;;;;;;;28.60;19.45;;;;;;;9.69;84.37;100021.50;696313;28;1308;-46
2021/05/16 01:21:24;;;;;;;27.50;19.83;;;;;;;9.71;83.88;100013.56;696516;28;799;-46
2021/05/16 01:21:45;;;;;;;27.33;20.00;;;;;;;9.76;83.44;100011.53;696285;28;845;-47
2021/05/16 01:22:09;;;;;;;27.93;19.30;;;;;;;9.70;83.80;100014.47;696429;28;978;-47
2021/05/16 01:22:31;;;;;;;27.90;20.00;;;;;;;9.68;84.13;100013.72;696373;28;842;-47
2021/05/16 01:23:05;;;;;;;28.25;19.88;;;;;;;9.65;84.07;100013.84;696286;28;907;-50
2021/05/16 01:23:35;;;;;;;27.23;19.73;;;;;;;9.65;84.09;100019.97;696434;28;968;-46
2021/05/16 01:23:55;;;;;;;26.60;19.33;;;;;;;9.71;83.91;100013.56;696319;28;958;-48
2021/05/16 01:24:18;;;;;;;25.77;18.70;;;;;;;9.73;83.79;100016.94;696372;28;875;-48
2021/05/16 01:24:43;;;;;;;27.42;18.75;;;;;;;9.73;83.92;100022.19;696291;28;977;-46
2021/05/16 01:25:05;;;;;;;29.45;19.85;;;;;;;9.69;84.11;100018.03;696479;28;879;-48
2021/05/16 01:25:27;;;;;;;28.25;19.52;;;;;;;9.65;84.33;100017.34;696272;28;886;-46
2021/05/16 01:25:49;;;;;;;27.65;20.23;;;;;;;9.62;84.23;100017.50;696329;28;965;-46
2021/05/16 01:26:09;;;;;;;26.90;19.88;;;;;;;9.63;84.30;100021.81;698826;28;1174;-46
2021/05/16 01:26:35;;;;;;;27.77;19.13;;;;;;;9.62;84.14;100020.13;698413;28;1058;-46
2021/05/16 01:26:58;;;;;;;30.85;19.33;;;;;;;9.60;84.21;100011.47;698929;28;930;-46
2021/05/16 01:27:19;;;;;;;28.33;19.33;;;;;;;9.67;84.05;100023.38;698923;28;871;-49
2021/05/16 01:27:40;;;;;;;28.45;19.58;;;;;;;9.64;84.23;100017.44;698924;28;939;-47
2021/05/16 01:28:00;;;;;;;28.17;19.73;;;;;;;9.62;84.62;100020.13;697634;28;907;-46
2021/05/16 01:28:21;;;;;;;27.92;19.60;;;;;;;9.63;84.45;100020.97;696417;28;926;-46
2021/05/16 01:28:44;;;;;;;28.05;19.45;;;;;;;9.62;84.51;100020.13;696001;28;915;-47
2021/05/16 01:29:04;;;;;;;29.80;19.10;;;;;;;9.63;84.69;100021.81;696361;28;999;-48
2021/05/16 01:29:25;;;;;;;29.80;19.03;;;;;;;9.63;84.51;100023.59;696283;28;2322;-47
2021/05/16 01:29:48;;;;;;;28.13;18.83;;;;;;;9.65;84.37;100019.97;696413;28;879;-46
2021/05/16 01:30:15;;;;;;;26.42;18.92;;;;;;;9.65;84.42;100024.38;696332;28;872;-49
2021/05/16 01:30:36;;;;;;;26.75;18.88;;;;;;;9.65;84.08;100019.13;695803;28;1440;-47
2021/05/16 01:30:56;;;;;;;27.98;19.35;;;;;;;9.66;84.27;100026.06;696428;28;931;-46
2021/05/16 01:31:18;;;;;;;27.67;19.23;;;;;;;9.63;84.45;100019.19;696393;28;829;-48
2021/05/16 01:31:42;;;;;;;28.05;18.30;;;;;;;9.69;84.27;100018.03;696403;28;1096;-46
2021/05/16 01:32:02;;;;;;;26.13;18.05;;;;;;;9.69;84.11;100020.66;696211;28;946;-46
2021/05/16 01:32:24;;;;;;;26.92;18.65;;;;;;;9.68;84.25;100021.59;696453;28;920;-47
2021/05/16 01:32:45;;;;;;;28.10;18.92;;;;;;;9.70;83.84;100017.97;696286;28;878;-47
2021/05/16 01:33:06;;;;;;;25.00;17.65;;;;;;;9.68;83.93;100021.59;696481;28;922;-48
2021/05/16 01:33:27;;;;;;;24.30;17.02;;;;;;;9.72;83.52;100023.13;696446;28;812;-45
2021/05/16 01:33:47;;;;;;;26.10;16.77;;;;;;;9.72;83.35;100020.50;696315;28;821;-49
2021/05/16 01:34:08;;;;;;;25.70;17.00;;;;;;;9.72;83.52;100020.50;696620;28;978;-47
2021/05/16 01:34:28;;;;;;;25.17;16.40;;;;;;;9.69;82.81;100025.94;696409;28;974;-45
2021/05/16 01:34:49;;;;;;;24.20;15.63;;;;;;;9.72;82.64;100018.72;696456;28;785;-47
2021/05/16 01:35:12;;;;;;;25.08;15.85;;;;;;;9.76;82.43;100016.78;696597;28;953;-48
2021/05/16 01:35:34;;;;;;;24.95;15.93;;;;;;;9.73;82.68;100016.94;696433;28;903;-48
2021/05/16 01:35:55;;;;;;;23.65;15.60;;;;;;;9.73;82.72;100015.16;696381;28;874;-46
2021/05/16 01:36:18;;;;;;;23.38;15.70;;;;;;;9.69;82.71;100018.03;696412;28;962;-47
2021/05/16 01:36:39;;;;;;;22.52;15.77;;;;;;;9.67;82.76;100019.88;696474;28;899;-45
2021/05/16 01:37:00;;;;;;;19.87;14.93;;;;;;;9.70;82.76;100020.59;696345;28;1085;-48
2021/05/16 01:37:20;;;;;;;22.43;14.63;;;;;;;9.69;82.70;100010.13;696365;28;864;-49
2021/05/16 01:37:48;;;;;;;23.60;15.15;;;;;;;9.67;83.23;100012.84;696369;28;864;-46
2021/05/16 01:38:08;;;;;;;24.13;15.40;;;;;;;9.64;82.74;100018.28;696255;28;986;-45
2021/05/16 01:38:29;;;;;;;22.65;14.15;;;;;;;9.61;83.02;100015.78;695994;28;875;-46
2021/05/16 01:38:52;;;;;;;22.07;14.17;;;;;;;9.62;83.12;100014.00;696470;28;978;-47
2021/05/16 01:39:13;;;;;;;23.85;14.88;;;;;;;9.60;83.10;100016.72;696248;28;1296;-47
2021/05/16 01:39:34;;;;;;;21.25;13.68;;;;;;;9.56;82.38;100017.78;696378;28;961;-47
2021/05/16 01:39:54;;;;;;;20.67;12.32;;;;;;;9.57;81.95;100018.66;696178;28;1182;-46
2021/05/16 01:40:18;;;;;;;20.63;12.53;;;;;;;9.56;82.23;100025.69;696401;28;871;-46
2021/05/16 01:40:41;;;;;;;20.90;13.15;;;;;;;9.55;82.93;100017.88;696373;28;1026;-47
2021/05/16 01:41:02;;;;;;;22.13;13.20;;;;;;;9.52;82.71;100019.72;696278;28;914;-47
2021/05/16 01:41:22;;;;;;;20.52;12.77;;;;;;;9.62;82.74;100016.63;696438;28;990;-47
2021/05/16 01:41:43;;;;;;;20.53;13.00;;;;;;;9.61;83.12;100022.84;696303;28;806;-46
2021/05/16 01:42:04;;;;;;;21.25;13.20;;;;;;;9.65;82.68;100019.97;696352;28;926;-46
2021/05/16 01:42:26;;;;;;;19.58;12.98;;;;;;;9.65;82.24;100019.13;696414;28;836;-47
2021/05/16 01:42:49;;;;;;;20.42;12.65;;;;;;;9.63;82.30;100020.97;698838;28;1312;-46
2021/05/16 01:43:11;;;;;;;20.98;12.73;;;;;;;9.62;82.13;100019.28;698873;28;1027;-48
2021/05/16 01:43:38;;;;;;;20.40;12.93;;;;;;;9.58;82.51;100015.09;698889;28;886;-48
2021/05/16 01:44:05;;;;;;;20.02;11.98;;;;;;;9.52;82.16;100019.72;698805;28;1091;-48